sensor_id;sensor_type;location;lat;lon;timestamp;P1;durP1;ratioP1;P2;durP2;ratioP2
6243;SDS011;3155;49.940;8.450;2023-11-19T00:00:22;9.60;;;7.47;;
6243;SDS011;3155;49.940;8.450;2023-11-19T00:02:50;11.32;;;7.55;;
6243;SDS011;3155;49.940;8.450;2023-11-19T00:05:17;10.60;;;7.72;;
6243;SDS011;3155;49.940;8.450;2023-11-19T00:07:44;12.00;;;8.23;;
6243;SDS011;3155;49.940;8.450;2023-11-19T00:10:13;11.80;;;7.97;;
6243;SDS011;3155;49.940;8.450;2023-11-19T00:12:45;10.25;;;7.45;;
6243;SDS011;3155;49.940;8.450;2023-11-19T00:15:15;9.65;;;7.22;;
6243;SDS011;3155;49.940;8.450;2023-11-19T00:17:45;10.95;;;8.02;;
6243;SDS011;3155;49.940;8.450;2023-11-19T00:20:15;11.95;;;7.15;;
6243;SDS011;3155;49.940;8.450;2023-11-19T00:22:43;9.43;;;6.68;;
6243;SDS011;3155;49.940;8.450;2023-11-19T00:25:13;7.35;;;6.50;;
6243;SDS011;3155;49.940;8.450;2023-11-19T00:27:40;10.07;;;6.67;;
6243;SDS011;3155;49.940;8.450;2023-11-19T00:30:11;7.47;;;6.68;;
6243;SDS011;3155;49.940;8.450;2023-11-19T00:32:39;8.77;;;6.78;;
6243;SDS011;3155;49.940;8.450;2023-11-19T00:35:07;10.02;;;6.40;;
6243;SDS011;3155;49.940;8.450;2023-11-19T00:37:34;9.32;;;6.45;;
6243;SDS011;3155;49.940;8.450;2023-11-19T00:40:04;8.00;;;6.25;;
6243;SDS011;3155;49.940;8.450;2023-11-19T00:42:32;9.68;;;6.40;;
6243;SDS011;3155;49.940;8.450;2023-11-19T00:44:59;7.05;;;6.13;;
6243;SDS011;3155;49.940;8.450;2023-11-19T00:47:28;10.98;;;6.43;;
6243;SDS011;3155;49.940;8.450;2023-11-19T00:49:57;9.00;;;6.10;;
6243;SDS011;3155;49.940;8.450;2023-11-19T00:52:24;9.02;;;6.50;;
6243;SDS011;3155;49.940;8.450;2023-11-19T00:54:51;9.98;;;6.25;;
6243;SDS011;3155;49.940;8.450;2023-11-19T00:57:18;8.60;;;6.68;;
6243;SDS011;3155;49.940;8.450;2023-11-19T00:59:45;9.85;;;6.20;;
6243;SDS011;3155;49.940;8.450;2023-11-19T01:02:13;8.55;;;6.40;;
6243;SDS011;3155;49.940;8.450;2023-11-19T01:04:41;9.57;;;6.90;;
6243;SDS011;3155;49.940;8.450;2023-11-19T01:07:09;8.30;;;6.82;;
6243;SDS011;3155;49.940;8.450;2023-11-19T01:09:41;10.43;;;7.28;;
6243;SDS011;3155;49.940;8.450;2023-11-19T01:12:08;10.60;;;7.47;;
6243;SDS011;3155;49.940;8.450;2023-11-19T01:14:37;12.00;;;8.05;;
6243;SDS011;3155;49.940;8.450;2023-11-19T01:17:04;8.80;;;7.10;;
6243;SDS011;3155;49.940;8.450;2023-11-19T01:19:31;9.80;;;7.15;;
6243;SDS011;3155;49.940;8.450;2023-11-19T01:21:59;9.10;;;7.20;;
6243;SDS011;3155;49.940;8.450;2023-11-19T01:24:29;9.50;;;6.70;;
6243;SDS011;3155;49.940;8.450;2023-11-19T01:26:57;8.93;;;6.67;;
6243;SDS011;3155;49.940;8.450;2023-11-19T01:29:26;9.25;;;6.85;;
6243;SDS011;3155;49.940;8.450;2023-11-19T01:32:00;9.97;;;6.70;;
6243;SDS011;3155;49.940;8.450;2023-11-19T01:34:27;7.97;;;6.82;;
6243;SDS011;3155;49.940;8.450;2023-11-19T01:36:55;10.13;;;7.07;;
6243;SDS011;3155;49.940;8.450;2023-11-19T01:39:25;7.70;;;6.90;;
6243;SDS011;3155;49.940;8.450;2023-11-19T01:41:53;7.97;;;6.40;;
6243;SDS011;3155;49.940;8.450;2023-11-19T01:44:20;9.25;;;7.00;;
6243;SDS011;3155;49.940;8.450;2023-11-19T01:46:47;9.70;;;7.28;;
6243;SDS011;3155;49.940;8.450;2023-11-19T01:49:15;10.52;;;7.20;;
6243;SDS011;3155;49.940;8.450;2023-11-19T01:51:43;8.50;;;6.82;;
6243;SDS011;3155;49.940;8.450;2023-11-19T01:54:10;8.80;;;6.80;;
6243;SDS011;3155;49.940;8.450;2023-11-19T01:56:37;9.27;;;6.78;;
6243;SDS011;3155;49.940;8.450;2023-11-19T01:59:07;7.80;;;6.87;;
6243;SDS011;3155;49.940;8.450;2023-11-19T02:01:35;8.55;;;6.47;;
6243;SDS011;3155;49.940;8.450;2023-11-19T02:04:07;10.60;;;6.07;;
6243;SDS011;3155;49.940;8.450;2023-11-19T02:06:34;7.80;;;6.30;;
6243;SDS011;3155;49.940;8.450;2023-11-19T02:09:04;8.85;;;6.22;;
6243;SDS011;3155;49.940;8.450;2023-11-19T02:11:34;9.45;;;6.20;;
6243;SDS011;3155;49.940;8.450;2023-11-19T02:14:07;7.65;;;6.07;;
6243;SDS011;3155;49.940;8.450;2023-11-19T02:16:34;7.13;;;6.25;;
6243;SDS011;3155;49.940;8.450;2023-11-19T02:19:01;6.53;;;5.88;;
6243;SDS011;3155;49.940;8.450;2023-11-19T02:21:30;6.60;;;5.90;;
6243;SDS011;3155;49.940;8.450;2023-11-19T02:23:57;6.82;;;5.43;;
6243;SDS011;3155;49.940;8.450;2023-11-19T02:29:08;5.82;;;5.22;;
6243;SDS011;3155;49.940;8.450;2023-11-19T02:31:35;4.77;;;4.20;;
6243;SDS011;3155;49.940;8.450;2023-11-19T02:34:02;5.10;;;4.60;;
6243;SDS011;3155;49.940;8.450;2023-11-19T02:36:29;4.45;;;3.90;;
6243;SDS011;3155;49.940;8.450;2023-11-19T02:38:58;4.75;;;3.88;;
6243;SDS011;3155;49.940;8.450;2023-11-19T02:41:25;3.92;;;3.63;;
6243;SDS011;3155;49.940;8.450;2023-11-19T02:43:53;4.22;;;3.83;;
6243;SDS011;3155;49.940;8.450;2023-11-19T02:46:20;4.40;;;4.00;;
6243;SDS011;3155;49.940;8.450;2023-11-19T02:48:47;4.90;;;3.93;;
6243;SDS011;3155;49.940;8.450;2023-11-19T02:51:14;4.57;;;3.88;;
6243;SDS011;3155;49.940;8.450;2023-11-19T02:53:41;4.30;;;3.90;;
6243;SDS011;3155;49.940;8.450;2023-11-19T02:56:14;4.13;;;3.80;;
6243;SDS011;3155;49.940;8.450;2023-11-19T02:58:46;5.35;;;3.80;;
6243;SDS011;3155;49.940;8.450;2023-11-19T03:01:20;4.35;;;3.97;;
6243;SDS011;3155;49.940;8.450;2023-11-19T03:03:56;5.47;;;4.27;;
6243;SDS011;3155;49.940;8.450;2023-11-19T03:06:24;4.30;;;3.90;;
6243;SDS011;3155;49.940;8.450;2023-11-19T03:08:54;5.07;;;4.07;;
6243;SDS011;3155;49.940;8.450;2023-11-19T03:11:22;4.30;;;3.95;;
6243;SDS011;3155;49.940;8.450;2023-11-19T03:13:50;4.70;;;3.97;;
6243;SDS011;3155;49.940;8.450;2023-11-19T03:16:18;4.07;;;3.60;;
6243;SDS011;3155;49.940;8.450;2023-11-19T03:18:45;3.78;;;3.47;;
6243;SDS011;3155;49.940;8.450;2023-11-19T03:21:12;4.03;;;3.53;;
6243;SDS011;3155;49.940;8.450;2023-11-19T03:23:40;4.35;;;3.40;;
6243;SDS011;3155;49.940;8.450;2023-11-19T03:26:07;3.90;;;3.50;;
6243;SDS011;3155;49.940;8.450;2023-11-19T03:28:35;3.42;;;3.10;;
6243;SDS011;3155;49.940;8.450;2023-11-19T03:31:05;3.35;;;3.05;;
6243;SDS011;3155;49.940;8.450;2023-11-19T03:33:35;3.10;;;2.78;;
6243;SDS011;3155;49.940;8.450;2023-11-19T03:36:03;2.80;;;2.60;;
6243;SDS011;3155;49.940;8.450;2023-11-19T03:38:31;2.90;;;2.70;;
6243;SDS011;3155;49.940;8.450;2023-11-19T03:40:58;3.20;;;2.22;;
6243;SDS011;3155;49.940;8.450;2023-11-19T03:43:25;2.65;;;2.25;;
6243;SDS011;3155;49.940;8.450;2023-11-19T03:45:53;2.60;;;2.40;;
6243;SDS011;3155;49.940;8.450;2023-11-19T03:48:21;2.90;;;2.10;;
6243;SDS011;3155;49.940;8.450;2023-11-19T03:50:51;2.42;;;2.22;;
6243;SDS011;3155;49.940;8.450;2023-11-19T03:53:18;3.17;;;2.10;;
6243;SDS011;3155;49.940;8.450;2023-11-19T03:55:45;2.20;;;2.00;;
6243;SDS011;3155;49.940;8.450;2023-11-19T03:58:15;2.90;;;1.98;;
6243;SDS011;3155;49.940;8.450;2023-11-19T04:00:42;2.25;;;1.77;;
6243;SDS011;3155;49.940;8.450;2023-11-19T04:03:09;2.20;;;1.65;;
6243;SDS011;3155;49.940;8.450;2023-11-19T04:05:36;2.10;;;1.60;;
6243;SDS011;3155;49.940;8.450;2023-11-19T04:08:03;1.87;;;1.77;;
6243;SDS011;3155;49.940;8.450;2023-11-19T04:10:33;1.70;;;1.50;;
6243;SDS011;3155;49.940;8.450;2023-11-19T04:13:01;3.25;;;1.77;;
6243;SDS011;3155;49.940;8.450;2023-11-19T04:15:28;1.88;;;1.67;;
6243;SDS011;3155;49.940;8.450;2023-11-19T04:17:58;2.00;;;1.73;;
6243;SDS011;3155;49.940;8.450;2023-11-19T04:20:25;1.90;;;1.80;;
6243;SDS011;3155;49.940;8.450;2023-11-19T04:22:56;2.60;;;2.00;;
6243;SDS011;3155;49.940;8.450;2023-11-19T04:25:23;4.03;;;2.33;;
6243;SDS011;3155;49.940;8.450;2023-11-19T04:27:52;2.40;;;2.20;;
6243;SDS011;3155;49.940;8.450;2023-11-19T04:30:19;3.10;;;2.03;;
6243;SDS011;3155;49.940;8.450;2023-11-19T04:32:49;2.50;;;2.30;;
6243;SDS011;3155;49.940;8.450;2023-11-19T04:35:16;2.65;;;2.45;;
6243;SDS011;3155;49.940;8.450;2023-11-19T04:37:45;3.08;;;2.20;;
6243;SDS011;3155;49.940;8.450;2023-11-19T04:40:13;2.50;;;2.15;;
6243;SDS011;3155;49.940;8.450;2023-11-19T04:42:40;2.60;;;2.10;;
6243;SDS011;3155;49.940;8.450;2023-11-19T04:45:08;2.80;;;2.38;;
6243;SDS011;3155;49.940;8.450;2023-11-19T04:47:36;4.05;;;2.13;;
6243;SDS011;3155;49.940;8.450;2023-11-19T04:50:04;2.15;;;1.92;;
6243;SDS011;3155;49.940;8.450;2023-11-19T04:52:31;2.38;;;1.92;;
6243;SDS011;3155;49.940;8.450;2023-11-19T04:54:59;2.72;;;1.92;;
6243;SDS011;3155;49.940;8.450;2023-11-19T04:57:26;2.05;;;1.80;;
6243;SDS011;3155;49.940;8.450;2023-11-19T04:59:53;2.10;;;1.90;;
6243;SDS011;3155;49.940;8.450;2023-11-19T05:02:20;3.25;;;2.13;;
6243;SDS011;3155;49.940;8.450;2023-11-19T05:04:48;2.05;;;1.90;;
6243;SDS011;3155;49.940;8.450;2023-11-19T05:07:15;1.70;;;1.60;;
6243;SDS011;3155;49.940;8.450;2023-11-19T05:09:43;3.00;;;1.80;;
6243;SDS011;3155;49.940;8.450;2023-11-19T05:12:12;4.60;;;1.80;;
6243;SDS011;3155;49.940;8.450;2023-11-19T05:14:39;1.40;;;1.30;;
6243;SDS011;3155;49.940;8.450;2023-11-19T05:17:06;1.70;;;1.60;;
6243;SDS011;3155;49.940;8.450;2023-11-19T05:19:34;2.25;;;1.90;;
6243;SDS011;3155;49.940;8.450;2023-11-19T05:22:01;1.52;;;1.42;;
6243;SDS011;3155;49.940;8.450;2023-11-19T05:24:28;1.30;;;1.30;;
6243;SDS011;3155;49.940;8.450;2023-11-19T05:26:56;1.17;;;1.17;;
6243;SDS011;3155;49.940;8.450;2023-11-19T05:29:24;1.77;;;1.30;;
6243;SDS011;3155;49.940;8.450;2023-11-19T05:31:54;1.55;;;1.45;;
6243;SDS011;3155;49.940;8.450;2023-11-19T05:34:21;1.20;;;1.15;;
6243;SDS011;3155;49.940;8.450;2023-11-19T05:36:49;0.90;;;0.90;;
6243;SDS011;3155;49.940;8.450;2023-11-19T05:39:17;0.80;;;0.80;;
6243;SDS011;3155;49.940;8.450;2023-11-19T05:41:50;1.00;;;1.00;;
6243;SDS011;3155;49.940;8.450;2023-11-19T05:44:18;0.98;;;0.95;;
6243;SDS011;3155;49.940;8.450;2023-11-19T05:46:46;0.80;;;0.80;;
6243;SDS011;3155;49.940;8.450;2023-11-19T05:49:13;0.97;;;0.97;;
6243;SDS011;3155;49.940;8.450;2023-11-19T05:51:40;0.90;;;0.90;;
6243;SDS011;3155;49.940;8.450;2023-11-19T05:54:08;0.80;;;0.80;;
6243;SDS011;3155;49.940;8.450;2023-11-19T05:56:36;0.68;;;0.68;;
6243;SDS011;3155;49.940;8.450;2023-11-19T05:59:04;2.60;;;0.70;;
6243;SDS011;3155;49.940;8.450;2023-11-19T06:01:36;0.70;;;0.70;;
6243;SDS011;3155;49.940;8.450;2023-11-19T06:04:06;0.77;;;0.77;;
6243;SDS011;3155;49.940;8.450;2023-11-19T06:06:34;1.42;;;0.68;;
6243;SDS011;3155;49.940;8.450;2023-11-19T06:09:01;0.90;;;0.90;;
6243;SDS011;3155;49.940;8.450;2023-11-19T06:11:35;1.00;;;1.00;;
6243;SDS011;3155;49.940;8.450;2023-11-19T06:14:02;1.15;;;0.93;;
6243;SDS011;3155;49.940;8.450;2023-11-19T06:16:31;1.90;;;0.90;;
6243;SDS011;3155;49.940;8.450;2023-11-19T06:18:59;1.00;;;1.00;;
6243;SDS011;3155;49.940;8.450;2023-11-19T06:21:26;1.00;;;1.00;;
6243;SDS011;3155;49.940;8.450;2023-11-19T06:23:54;0.90;;;0.90;;
6243;SDS011;3155;49.940;8.450;2023-11-19T06:26:21;1.05;;;0.95;;
6243;SDS011;3155;49.940;8.450;2023-11-19T06:28:49;0.93;;;0.93;;
6243;SDS011;3155;49.940;8.450;2023-11-19T06:31:16;0.90;;;0.90;;
6243;SDS011;3155;49.940;8.450;2023-11-19T06:33:44;1.27;;;1.20;;
6243;SDS011;3155;49.940;8.450;2023-11-19T06:36:13;1.05;;;1.05;;
6243;SDS011;3155;49.940;8.450;2023-11-19T06:38:42;1.00;;;1.00;;
6243;SDS011;3155;49.940;8.450;2023-11-19T06:41:10;1.10;;;1.10;;
6243;SDS011;3155;49.940;8.450;2023-11-19T06:43:37;1.40;;;1.30;;
6243;SDS011;3155;49.940;8.450;2023-11-19T06:46:17;1.35;;;1.25;;
6243;SDS011;3155;49.940;8.450;2023-11-19T06:48:44;1.20;;;1.20;;
6243;SDS011;3155;49.940;8.450;2023-11-19T06:51:12;1.23;;;1.23;;
6243;SDS011;3155;49.940;8.450;2023-11-19T06:53:42;1.40;;;1.30;;
6243;SDS011;3155;49.940;8.450;2023-11-19T06:56:20;1.80;;;1.30;;
6243;SDS011;3155;49.940;8.450;2023-11-19T06:58:48;1.20;;;1.20;;
6243;SDS011;3155;49.940;8.450;2023-11-19T07:01:15;1.50;;;1.40;;
6243;SDS011;3155;49.940;8.450;2023-11-19T07:03:45;1.50;;;1.50;;
6243;SDS011;3155;49.940;8.450;2023-11-19T07:06:14;1.47;;;1.37;;
6243;SDS011;3155;49.940;8.450;2023-11-19T07:08:42;1.58;;;1.58;;
6243;SDS011;3155;49.940;8.450;2023-11-19T07:11:13;1.77;;;1.67;;
6243;SDS011;3155;49.940;8.450;2023-11-19T07:13:42;1.67;;;1.58;;
6243;SDS011;3155;49.940;8.450;2023-11-19T07:16:09;1.60;;;1.60;;
6243;SDS011;3155;49.940;8.450;2023-11-19T07:18:37;1.73;;;1.50;;
6243;SDS011;3155;49.940;8.450;2023-11-19T07:21:07;1.45;;;1.35;;
6243;SDS011;3155;49.940;8.450;2023-11-19T07:23:36;1.10;;;1.10;;
6243;SDS011;3155;49.940;8.450;2023-11-19T07:26:05;1.20;;;1.17;;
6243;SDS011;3155;49.940;8.450;2023-11-19T07:28:35;0.98;;;0.98;;
6243;SDS011;3155;49.940;8.450;2023-11-19T07:31:02;3.20;;;1.10;;
6243;SDS011;3155;49.940;8.450;2023-11-19T07:33:29;1.20;;;1.00;;
6243;SDS011;3155;49.940;8.450;2023-11-19T07:35:57;1.80;;;1.70;;
6243;SDS011;3155;49.940;8.450;2023-11-19T07:38:26;2.20;;;1.70;;
6243;SDS011;3155;49.940;8.450;2023-11-19T07:40:53;1.75;;;1.65;;
6243;SDS011;3155;49.940;8.450;2023-11-19T07:43:25;1.90;;;1.60;;
6243;SDS011;3155;49.940;8.450;2023-11-19T07:45:52;1.70;;;1.60;;
6243;SDS011;3155;49.940;8.450;2023-11-19T07:48:20;1.45;;;1.40;;
6243;SDS011;3155;49.940;8.450;2023-11-19T07:50:49;1.60;;;1.50;;
6243;SDS011;3155;49.940;8.450;2023-11-19T07:53:17;1.70;;;1.60;;
6243;SDS011;3155;49.940;8.450;2023-11-19T07:55:44;1.92;;;1.75;;
6243;SDS011;3155;49.940;8.450;2023-11-19T07:58:11;2.50;;;1.90;;
6243;SDS011;3155;49.940;8.450;2023-11-19T08:00:38;2.03;;;1.60;;
6243;SDS011;3155;49.940;8.450;2023-11-19T08:03:06;1.70;;;1.60;;
6243;SDS011;3155;49.940;8.450;2023-11-19T08:05:34;2.83;;;1.83;;
6243;SDS011;3155;49.940;8.450;2023-11-19T08:08:01;2.67;;;1.48;;
6243;SDS011;3155;49.940;8.450;2023-11-19T08:10:28;1.90;;;1.38;;
6243;SDS011;3155;49.940;8.450;2023-11-19T08:12:55;1.00;;;1.00;;
6243;SDS011;3155;49.940;8.450;2023-11-19T08:15:22;1.75;;;1.30;;
6243;SDS011;3155;49.940;8.450;2023-11-19T08:17:52;1.20;;;1.20;;
6243;SDS011;3155;49.940;8.450;2023-11-19T08:20:20;1.50;;;1.30;;
6243;SDS011;3155;49.940;8.450;2023-11-19T08:22:47;1.08;;;1.00;;
6243;SDS011;3155;49.940;8.450;2023-11-19T08:25:15;0.90;;;0.90;;
6243;SDS011;3155;49.940;8.450;2023-11-19T08:27:42;2.10;;;1.20;;
6243;SDS011;3155;49.940;8.450;2023-11-19T08:30:09;3.45;;;1.58;;
6243;SDS011;3155;49.940;8.450;2023-11-19T08:32:36;1.20;;;1.15;;
6243;SDS011;3155;49.940;8.450;2023-11-19T08:35:04;1.90;;;1.25;;
6243;SDS011;3155;49.940;8.450;2023-11-19T08:37:34;0.90;;;0.90;;
6243;SDS011;3155;49.940;8.450;2023-11-19T08:40:03;1.20;;;0.88;;
6243;SDS011;3155;49.940;8.450;2023-11-19T08:42:31;1.33;;;0.95;;
6243;SDS011;3155;49.940;8.450;2023-11-19T08:44:58;1.50;;;0.75;;
6243;SDS011;3155;49.940;8.450;2023-11-19T08:47:25;1.10;;;1.00;;
6243;SDS011;3155;49.940;8.450;2023-11-19T08:49:53;1.20;;;1.10;;
6243;SDS011;3155;49.940;8.450;2023-11-19T08:52:24;1.33;;;1.00;;
6243;SDS011;3155;49.940;8.450;2023-11-19T08:54:51;2.85;;;1.00;;
6243;SDS011;3155;49.940;8.450;2023-11-19T08:57:18;4.30;;;1.10;;
6243;SDS011;3155;49.940;8.450;2023-11-19T08:59:45;1.90;;;1.00;;
6243;SDS011;3155;49.940;8.450;2023-11-19T09:02:13;1.27;;;1.17;;
6243;SDS011;3155;49.940;8.450;2023-11-19T09:04:40;1.63;;;1.10;;
6243;SDS011;3155;49.940;8.450;2023-11-19T09:07:07;1.45;;;1.05;;
6243;SDS011;3155;49.940;8.450;2023-11-19T09:09:40;2.97;;;0.93;;
6243;SDS011;3155;49.940;8.450;2023-11-19T09:12:07;1.27;;;1.10;;
6243;SDS011;3155;49.940;8.450;2023-11-19T09:14:40;2.33;;;0.90;;
6243;SDS011;3155;49.940;8.450;2023-11-19T09:17:08;1.25;;;1.15;;
6243;SDS011;3155;49.940;8.450;2023-11-19T09:19:36;2.50;;;1.27;;
6243;SDS011;3155;49.940;8.450;2023-11-19T09:22:03;1.40;;;1.00;;
6243;SDS011;3155;49.940;8.450;2023-11-19T09:24:33;1.83;;;0.95;;
6243;SDS011;3155;49.940;8.450;2023-11-19T09:27:00;2.60;;;0.80;;
6243;SDS011;3155;49.940;8.450;2023-11-19T09:29:33;1.60;;;0.80;;
6243;SDS011;3155;49.940;8.450;2023-11-19T09:32:02;2.38;;;0.98;;
6243;SDS011;3155;49.940;8.450;2023-11-19T09:34:31;1.15;;;0.70;;
6243;SDS011;3155;49.940;8.450;2023-11-19T09:37:00;2.10;;;0.80;;
6243;SDS011;3155;49.940;8.450;2023-11-19T09:39:28;2.58;;;0.95;;
6243;SDS011;3155;49.940;8.450;2023-11-19T09:41:58;4.67;;;1.10;;
6243;SDS011;3155;49.940;8.450;2023-11-19T09:44:25;3.40;;;1.00;;
6243;SDS011;3155;49.940;8.450;2023-11-19T09:46:54;2.42;;;1.00;;
6243;SDS011;3155;49.940;8.450;2023-11-19T09:49:23;3.10;;;1.02;;
6243;SDS011;3155;49.940;8.450;2023-11-19T09:51:55;2.70;;;1.02;;
6243;SDS011;3155;49.940;8.450;2023-11-19T09:54:22;4.22;;;1.17;;
6243;SDS011;3155;49.940;8.450;2023-11-19T09:56:49;5.80;;;1.42;;
6243;SDS011;3155;49.940;8.450;2023-11-19T09:59:19;1.90;;;1.00;;
6243;SDS011;3155;49.940;8.450;2023-11-19T10:01:46;5.43;;;1.42;;
6243;SDS011;3155;49.940;8.450;2023-11-19T10:04:15;4.80;;;1.08;;
6243;SDS011;3155;49.940;8.450;2023-11-19T10:06:43;3.53;;;0.93;;
6243;SDS011;3155;49.940;8.450;2023-11-19T10:09:11;3.53;;;1.20;;
6243;SDS011;3155;49.940;8.450;2023-11-19T10:11:41;4.63;;;1.30;;
6243;SDS011;3155;49.940;8.450;2023-11-19T10:14:09;5.60;;;1.35;;
6243;SDS011;3155;49.940;8.450;2023-11-19T10:16:39;3.58;;;1.15;;
6243;SDS011;3155;49.940;8.450;2023-11-19T10:19:07;7.18;;;1.30;;
6243;SDS011;3155;49.940;8.450;2023-11-19T10:21:35;3.13;;;1.15;;
6243;SDS011;3155;49.940;8.450;2023-11-19T10:24:02;4.38;;;1.08;;
6243;SDS011;3155;49.940;8.450;2023-11-19T10:26:29;3.38;;;1.10;;
6243;SDS011;3155;49.940;8.450;2023-11-19T10:28:56;6.70;;;1.30;;
6243;SDS011;3155;49.940;8.450;2023-11-19T10:31:27;5.03;;;1.17;;
6243;SDS011;3155;49.940;8.450;2023-11-19T10:33:54;3.95;;;1.50;;
6243;SDS011;3155;49.940;8.450;2023-11-19T10:36:22;6.13;;;1.47;;
6243;SDS011;3155;49.940;8.450;2023-11-19T10:38:54;3.85;;;0.90;;
6243;SDS011;3155;49.940;8.450;2023-11-19T10:41:27;3.13;;;1.08;;
6243;SDS011;3155;49.940;8.450;2023-11-19T10:43:55;3.90;;;1.10;;
6243;SDS011;3155;49.940;8.450;2023-11-19T10:46:22;7.83;;;1.40;;
6243;SDS011;3155;49.940;8.450;2023-11-19T10:48:49;4.22;;;1.15;;
6243;SDS011;3155;49.940;8.450;2023-11-19T10:51:19;3.83;;;1.10;;
6243;SDS011;3155;49.940;8.450;2023-11-19T10:53:50;4.63;;;1.60;;
6243;SDS011;3155;49.940;8.450;2023-11-19T10:56:18;4.65;;;1.20;;
6243;SDS011;3155;49.940;8.450;2023-11-19T10:58:47;2.38;;;1.23;;
6243;SDS011;3155;49.940;8.450;2023-11-19T11:01:18;5.50;;;1.10;;
6243;SDS011;3155;49.940;8.450;2023-11-19T11:03:47;3.45;;;1.02;;
6243;SDS011;3155;49.940;8.450;2023-11-19T11:06:19;4.90;;;1.00;;
6243;SDS011;3155;49.940;8.450;2023-11-19T11:08:47;5.13;;;1.30;;
6243;SDS011;3155;49.940;8.450;2023-11-19T11:11:15;4.07;;;1.20;;
6243;SDS011;3155;49.940;8.450;2023-11-19T11:13:51;4.32;;;1.48;;
6243;SDS011;3155;49.940;8.450;2023-11-19T11:16:20;5.00;;;1.20;;
6243;SDS011;3155;49.940;8.450;2023-11-19T11:18:50;3.28;;;1.20;;
6243;SDS011;3155;49.940;8.450;2023-11-19T11:21:20;2.85;;;0.90;;
6243;SDS011;3155;49.940;8.450;2023-11-19T11:26:46;2.80;;;1.15;;
6243;SDS011;3155;49.940;8.450;2023-11-19T11:29:20;4.18;;;1.02;;
6243;SDS011;3155;49.940;8.450;2023-11-19T11:34:48;4.45;;;0.90;;
6243;SDS011;3155;49.940;8.450;2023-11-19T11:44:00;1.88;;;0.90;;
6243;SDS011;3155;49.940;8.450;2023-11-19T12:03:00;3.47;;;1.17;;
6243;SDS011;3155;49.940;8.450;2023-11-19T12:05:52;4.93;;;1.60;;
6243;SDS011;3155;49.940;8.450;2023-11-19T12:08:24;3.72;;;1.10;;
6243;SDS011;3155;49.940;8.450;2023-11-19T12:21:42;4.93;;;1.10;;
6243;SDS011;3155;49.940;8.450;2023-11-19T12:24:33;3.53;;;1.42;;
6243;SDS011;3155;49.940;8.450;2023-11-19T12:27:09;4.28;;;1.40;;
6243;SDS011;3155;49.940;8.450;2023-11-19T12:29:48;5.70;;;1.90;;
6243;SDS011;3155;49.940;8.450;2023-11-19T12:46:20;6.00;;;1.30;;
6243;SDS011;3155;49.940;8.450;2023-11-19T12:48:48;3.47;;;0.98;;
6243;SDS011;3155;49.940;8.450;2023-11-19T12:51:16;6.35;;;1.13;;
6243;SDS011;3155;49.940;8.450;2023-11-19T12:53:50;2.92;;;1.20;;
6243;SDS011;3155;49.940;8.450;2023-11-19T12:56:21;5.00;;;1.48;;
6243;SDS011;3155;49.940;8.450;2023-11-19T12:58:49;4.10;;;1.10;;
6243;SDS011;3155;49.940;8.450;2023-11-19T13:01:17;2.50;;;1.02;;
6243;SDS011;3155;49.940;8.450;2023-11-19T13:03:45;6.43;;;1.40;;
6243;SDS011;3155;49.940;8.450;2023-11-19T13:06:15;6.93;;;1.33;;
6243;SDS011;3155;49.940;8.450;2023-11-19T13:08:49;3.80;;;1.20;;
6243;SDS011;3155;49.940;8.450;2023-11-19T13:11:32;4.50;;;1.27;;
6243;SDS011;3155;49.940;8.450;2023-11-19T13:48:09;3.55;;;1.50;;
6243;SDS011;3155;49.940;8.450;2023-11-19T13:50:36;4.63;;;1.33;;
6243;SDS011;3155;49.940;8.450;2023-11-19T13:53:03;7.03;;;1.45;;
6243;SDS011;3155;49.940;8.450;2023-11-19T13:55:31;5.13;;;1.10;;
6243;SDS011;3155;49.940;8.450;2023-11-19T13:57:58;4.50;;;1.38;;
6243;SDS011;3155;49.940;8.450;2023-11-19T14:00:26;6.07;;;1.33;;
6243;SDS011;3155;49.940;8.450;2023-11-19T14:02:53;5.78;;;1.30;;
6243;SDS011;3155;49.940;8.450;2023-11-19T14:05:20;4.13;;;1.03;;
6243;SDS011;3155;49.940;8.450;2023-11-19T14:07:50;3.60;;;1.27;;
6243;SDS011;3155;49.940;8.450;2023-11-19T14:10:17;3.63;;;1.15;;
6243;SDS011;3155;49.940;8.450;2023-11-19T14:12:45;7.03;;;1.73;;
6243;SDS011;3155;49.940;8.450;2023-11-19T14:15:15;4.45;;;1.63;;
6243;SDS011;3155;49.940;8.450;2023-11-19T14:17:45;6.72;;;1.48;;
6243;SDS011;3155;49.940;8.450;2023-11-19T14:20:15;5.65;;;1.60;;
6243;SDS011;3155;49.940;8.450;2023-11-19T14:22:43;6.57;;;1.60;;
6243;SDS011;3155;49.940;8.450;2023-11-19T14:25:11;5.05;;;1.10;;
6243;SDS011;3155;49.940;8.450;2023-11-19T14:27:43;6.32;;;1.40;;
6243;SDS011;3155;49.940;8.450;2023-11-19T14:30:10;3.20;;;1.10;;
6243;SDS011;3155;49.940;8.450;2023-11-19T14:32:40;5.82;;;1.70;;
6243;SDS011;3155;49.940;8.450;2023-11-19T14:35:12;4.43;;;1.13;;
6243;SDS011;3155;49.940;8.450;2023-11-19T14:37:39;5.47;;;1.30;;
6243;SDS011;3155;49.940;8.450;2023-11-19T14:40:06;5.97;;;1.70;;
6243;SDS011;3155;49.940;8.450;2023-11-19T14:42:37;5.47;;;1.25;;
6243;SDS011;3155;49.940;8.450;2023-11-19T14:45:06;4.28;;;1.30;;
6243;SDS011;3155;49.940;8.450;2023-11-19T14:47:33;5.68;;;1.30;;
6243;SDS011;3155;49.940;8.450;2023-11-19T14:50:00;7.07;;;1.30;;
6243;SDS011;3155;49.940;8.450;2023-11-19T14:52:29;6.40;;;1.50;;
6243;SDS011;3155;49.940;8.450;2023-11-19T14:54:56;4.95;;;1.40;;
6243;SDS011;3155;49.940;8.450;2023-11-19T14:57:23;3.40;;;1.23;;
6243;SDS011;3155;49.940;8.450;2023-11-19T14:59:50;5.72;;;1.35;;
6243;SDS011;3155;49.940;8.450;2023-11-19T15:02:20;5.55;;;0.98;;
6243;SDS011;3155;49.940;8.450;2023-11-19T15:04:48;2.95;;;1.15;;
6243;SDS011;3155;49.940;8.450;2023-11-19T15:07:15;4.15;;;1.33;;
6243;SDS011;3155;49.940;8.450;2023-11-19T15:09:42;6.05;;;1.13;;
6243;SDS011;3155;49.940;8.450;2023-11-19T15:12:09;3.63;;;1.13;;
6243;SDS011;3155;49.940;8.450;2023-11-19T15:14:37;7.22;;;1.55;;
6243;SDS011;3155;49.940;8.450;2023-11-19T15:17:04;4.93;;;1.40;;
6243;SDS011;3155;49.940;8.450;2023-11-19T15:19:34;4.67;;;1.20;;
6243;SDS011;3155;49.940;8.450;2023-11-19T15:22:05;4.18;;;1.42;;
6243;SDS011;3155;49.940;8.450;2023-11-19T15:24:32;4.93;;;1.30;;
6243;SDS011;3155;49.940;8.450;2023-11-19T15:27:03;7.70;;;1.35;;
6243;SDS011;3155;49.940;8.450;2023-11-19T15:29:33;6.00;;;1.23;;
6243;SDS011;3155;49.940;8.450;2023-11-19T15:32:00;4.47;;;1.33;;
6243;SDS011;3155;49.940;8.450;2023-11-19T15:34:29;6.13;;;1.53;;
6243;SDS011;3155;49.940;8.450;2023-11-19T15:36:56;6.53;;;1.33;;
6243;SDS011;3155;49.940;8.450;2023-11-19T15:39:24;5.80;;;1.67;;
6243;SDS011;3155;49.940;8.450;2023-11-19T15:41:55;6.47;;;1.50;;
6243;SDS011;3155;49.940;8.450;2023-11-19T15:44:24;5.35;;;1.52;;
6243;SDS011;3155;49.940;8.450;2023-11-19T15:46:51;3.58;;;1.65;;
6243;SDS011;3155;49.940;8.450;2023-11-19T15:49:19;4.50;;;1.30;;
6243;SDS011;3155;49.940;8.450;2023-11-19T15:51:47;5.53;;;1.60;;
6243;SDS011;3155;49.940;8.450;2023-11-19T15:54:14;5.32;;;1.50;;
6243;SDS011;3155;49.940;8.450;2023-11-19T15:56:44;4.47;;;1.30;;
6243;SDS011;3155;49.940;8.450;2023-11-19T15:59:12;4.83;;;1.77;;
6243;SDS011;3155;49.940;8.450;2023-11-19T16:01:41;3.30;;;1.50;;
6243;SDS011;3155;49.940;8.450;2023-11-19T16:04:09;5.95;;;1.48;;
6243;SDS011;3155;49.940;8.450;2023-11-19T16:06:36;5.47;;;1.53;;
6243;SDS011;3155;49.940;8.450;2023-11-19T16:09:03;3.33;;;1.10;;
6243;SDS011;3155;49.940;8.450;2023-11-19T16:11:30;5.80;;;1.55;;
6243;SDS011;3155;49.940;8.450;2023-11-19T16:14:12;4.78;;;1.13;;
6243;SDS011;3155;49.940;8.450;2023-11-19T16:16:40;5.25;;;1.08;;
6243;SDS011;3155;49.940;8.450;2023-11-19T16:19:10;3.78;;;1.10;;
6243;SDS011;3155;49.940;8.450;2023-11-19T16:21:37;5.47;;;1.00;;
6243;SDS011;3155;49.940;8.450;2023-11-19T16:24:04;4.30;;;1.70;;
6243;SDS011;3155;49.940;8.450;2023-11-19T16:26:33;3.55;;;1.17;;
6243;SDS011;3155;49.940;8.450;2023-11-19T16:29:02;4.57;;;1.40;;
6243;SDS011;3155;49.940;8.450;2023-11-19T16:31:30;3.47;;;1.20;;
6243;SDS011;3155;49.940;8.450;2023-11-19T16:33:57;4.78;;;1.20;;
6243;SDS011;3155;49.940;8.450;2023-11-19T16:36:26;4.23;;;1.20;;
6243;SDS011;3155;49.940;8.450;2023-11-19T16:38:58;7.57;;;1.38;;
6243;SDS011;3155;49.940;8.450;2023-11-19T16:41:31;2.92;;;1.00;;
6243;SDS011;3155;49.940;8.450;2023-11-19T16:44:10;3.83;;;1.25;;
6243;SDS011;3155;49.940;8.450;2023-11-19T16:46:41;6.47;;;1.00;;
6243;SDS011;3155;49.940;8.450;2023-11-19T16:49:11;5.47;;;1.27;;
6243;SDS011;3155;49.940;8.450;2023-11-19T16:51:44;3.35;;;0.80;;
6243;SDS011;3155;49.940;8.450;2023-11-19T16:54:12;2.40;;;1.08;;